Diamond Reef — WDH7513 — position and weather

sailwx.info

Track history (hours):
 
Tides and Currents Weather Stations Pressure Air Temp Water Temp Dewpoint Dewpoint Depression Visibility Wind Speed Wind Dir Waves Ship Positions

Diamond Reef

Owner: Diamond B Industries, LLC, New Iberia, LA. More information available from US FCC via Universal Licensing System and Coast Guard Vessel Documentation Center.

Last reported at 2017-Dec-01 12:32 UTC. Time now 2017-Dec-18 22:30 UTC.
Position N 42°12' W 070°43'.
Warning: this ship's position is 17 days out of date.

; draft 2 m.

Type: Towing. MMSI: 367648920.

Date/timePositionNaut miles runAvg speedWind from/ knotsBaromVisibWave heightAir tempDewpointWater temp
2017-Dec-01 12:32N 42°12' W 070°43'0 3.8
2017-Dec-01 12:26N 42°12' W 070°43'0 0.0
2017-Nov-30 14:24N 42°12' W 070°43'0 0.1
2017-Nov-30 13:57N 42°12' W 070°43'3 0.1
2017-Nov-28 16:03N 42°15' W 070°42'2 5.4
2017-Nov-28 15:44N 42°16' W 070°43'4 5.5
2017-Nov-28 15:00N 42°20' W 070°45'3 5.5
2017-Nov-28 14:30N 42°23' W 070°46'3 5.2
2017-Nov-28 14:00N 42°25' W 070°48'3 5.2
2017-Nov-28 13:30N 42°28' W 070°49'3 5.2
2017-Nov-28 13:00N 42°30' W 070°49'2 4.5
2017-Nov-28 12:30N 42°31' W 070°52'1 2.3
2017-Nov-28 12:00N 42°31' W 070°53'0 0.0
2017-Nov-27 17:42N 42°31' W 070°53'0 0.0
2017-Nov-27 17:20N 42°31' W 070°53'0 0.0
2017-Nov-27 16:33N 42°31' W 070°53'0 0.2
2017-Nov-27 16:30N 42°31' W 070°53'0 0.0
2017-Nov-27 14:55N 42°31' W 070°53'0 0.0
2017-Nov-27 14:31N 42°31' W 070°53'0 0.0
2017-Nov-27 14:01N 42°31' W 070°53'0 0.0
2017-Nov-27 13:30N 42°31' W 070°53'0 0.0
2017-Nov-27 13:01N 42°31' W 070°53'1 1.3
2017-Nov-27 12:31N 42°31' W 070°53'  
2017-Nov-22 19:35N 42°31' W 070°53'0 1.1
2017-Nov-22 19:29N 42°31' W 070°53'  
Track history (hours):
 
Tides and Currents Weather Stations Pressure Air Temp Water Temp Dewpoint Dewpoint Depression Visibility Wind Speed Wind Dir Waves Ship Positions

Diamond Reef

Owner: Diamond B Industries, LLC, New Iberia, LA. More information available from US FCC via Universal Licensing System and Coast Guard Vessel Documentation Center.

Last reported at 2017-Dec-01 12:32 UTC. Time now 2017-Dec-18 22:30 UTC.
Position N 42°12' W 070°43'.
Warning: this ship's position is 17 days out of date.

; draft 2 m.

Type: Towing. MMSI: 367648920.

Date/timePositionNaut miles runAvg speedWind from/ knotsBaromVisibWave heightAir tempDewpointWater temp
2017-Dec-01 12:32N 42°12' W 070°43'0 3.8
2017-Dec-01 12:26N 42°12' W 070°43'0 0.0
2017-Nov-30 14:24N 42°12' W 070°43'0 0.1
2017-Nov-30 13:57N 42°12' W 070°43'3 0.1
2017-Nov-28 16:03N 42°15' W 070°42'2 5.4
2017-Nov-28 15:44N 42°16' W 070°43'4 5.5
2017-Nov-28 15:00N 42°20' W 070°45'3 5.5
2017-Nov-28 14:30N 42°23' W 070°46'3 5.2
2017-Nov-28 14:00N 42°25' W 070°48'3 5.2
2017-Nov-28 13:30N 42°28' W 070°49'3 5.2
2017-Nov-28 13:00N 42°30' W 070°49'2 4.5
2017-Nov-28 12:30N 42°31' W 070°52'1 2.3
2017-Nov-28 12:00N 42°31' W 070°53'0 0.0
2017-Nov-27 17:42N 42°31' W 070°53'0 0.0
2017-Nov-27 17:20N 42°31' W 070°53'0 0.0
2017-Nov-27 16:33N 42°31' W 070°53'0 0.2
2017-Nov-27 16:30N 42°31' W 070°53'0 0.0
2017-Nov-27 14:55N 42°31' W 070°53'0 0.0
2017-Nov-27 14:31N 42°31' W 070°53'0 0.0
2017-Nov-27 14:01N 42°31' W 070°53'0 0.0
2017-Nov-27 13:30N 42°31' W 070°53'0 0.0
2017-Nov-27 13:01N 42°31' W 070°53'1 1.3
2017-Nov-27 12:31N 42°31' W 070°53'  
2017-Nov-22 19:35N 42°31' W 070°53'0 1.1
2017-Nov-22 19:29N 42°31' W 070°53'  

Dump ship's entire track history